createdAt,value
2022-10-12T00:00:53.475Z,99.90
2022-10-12T00:03:34.732Z,99.90
2022-10-12T00:06:14.998Z,99.90
2022-10-12T00:08:51.748Z,99.90
2022-10-12T00:11:27.439Z,99.90
2022-10-12T00:14:05.408Z,99.90
2022-10-12T00:16:49.372Z,99.90
2022-10-12T00:19:26.258Z,99.90
2022-10-12T00:22:01.607Z,99.90
2022-10-12T00:24:38.318Z,99.90
2022-10-12T00:27:16.445Z,99.90
2022-10-12T00:29:45.639Z,99.90
2022-10-12T00:32:19.163Z,99.90
2022-10-12T00:34:55.992Z,99.90
2022-10-12T00:37:35.931Z,99.90
2022-10-12T00:40:12.579Z,99.90
2022-10-12T00:42:46.482Z,99.90
2022-10-12T00:45:18.865Z,99.90
2022-10-12T00:48:05.912Z,99.90
2022-10-12T00:50:48.210Z,99.90
2022-10-12T00:53:24.692Z,99.90
2022-10-12T00:56:00.852Z,99.90
2022-10-12T00:58:42.638Z,99.90
2022-10-12T01:01:35.043Z,99.90
2022-10-12T01:04:08.160Z,99.90
2022-10-12T01:06:47.486Z,99.90
2022-10-12T01:09:23.406Z,99.90
2022-10-12T01:11:57.878Z,99.90
2022-10-12T01:14:42.007Z,99.90
2022-10-12T01:17:25.486Z,99.90
2022-10-12T01:20:39.471Z,99.90
2022-10-12T01:23:43.038Z,99.90
2022-10-12T01:26:56.975Z,99.90
2022-10-12T01:30:18.020Z,99.90
2022-10-12T01:33:29.802Z,99.90
2022-10-12T01:36:14.977Z,99.90
2022-10-12T01:38:54.607Z,99.90
2022-10-12T01:41:31.696Z,99.90
2022-10-12T01:44:08.523Z,99.90
2022-10-12T01:46:51.210Z,99.90
2022-10-12T01:49:29.595Z,99.90
2022-10-12T01:52:25.196Z,99.90
2022-10-12T01:55:28.794Z,99.90
2022-10-12T01:58:19.729Z,99.90
2022-10-12T02:01:02.021Z,99.90
2022-10-12T02:03:41.367Z,99.90
2022-10-12T02:06:24.665Z,99.90
2022-10-12T02:09:00.395Z,99.90
2022-10-12T02:11:35.932Z,99.90
2022-10-12T02:14:14.520Z,99.90
2022-10-12T02:16:53.935Z,99.90
2022-10-12T02:19:30.796Z,99.90
2022-10-12T02:22:12.087Z,99.90
2022-10-12T02:24:53.026Z,99.90
2022-10-12T02:27:29.895Z,99.90
2022-10-12T02:30:00.068Z,99.90
2022-10-12T02:32:51.270Z,99.90
2022-10-12T02:35:40.829Z,99.90
2022-10-12T02:38:24.635Z,99.90
2022-10-12T02:41:10.428Z,99.90
2022-10-12T02:43:52.188Z,99.90
2022-10-12T02:46:42.188Z,99.90
2022-10-12T02:49:19.651Z,99.90
2022-10-12T02:51:55.419Z,99.90
2022-10-12T02:54:37.746Z,99.90
2022-10-12T02:57:10.901Z,99.90
2022-10-12T02:59:46.429Z,99.90
2022-10-12T03:02:21.756Z,99.90
2022-10-12T03:04:56.062Z,99.90
2022-10-12T03:07:36.969Z,99.90
2022-10-12T03:10:12.910Z,99.90
2022-10-12T03:12:51.907Z,99.90
2022-10-12T03:15:31.956Z,99.90
2022-10-12T03:18:07.380Z,99.90
2022-10-12T03:20:44.548Z,99.90
2022-10-12T03:23:36.799Z,99.90
2022-10-12T03:26:23.587Z,99.90
2022-10-12T03:28:58.475Z,99.90
2022-10-12T03:31:42.237Z,99.90
2022-10-12T03:34:21.035Z,99.90
2022-10-12T03:36:55.580Z,99.90
2022-10-12T03:39:34.054Z,99.90
2022-10-12T03:42:14.857Z,99.90
2022-10-12T03:44:53.063Z,99.90
2022-10-12T03:47:27.868Z,99.90
2022-10-12T03:49:59.442Z,99.90
2022-10-12T03:52:38.514Z,99.90
2022-10-12T03:55:15.106Z,99.90
2022-10-12T03:58:05.868Z,99.90
2022-10-12T04:00:40.157Z,99.90
2022-10-12T04:03:33.524Z,99.90
2022-10-12T04:06:07.651Z,99.90
2022-10-12T04:08:41.375Z,99.90
2022-10-12T04:11:25.509Z,99.90
2022-10-12T04:14:08.034Z,99.90
2022-10-12T04:16:43.690Z,99.90
2022-10-12T04:19:28.263Z,99.90
2022-10-12T04:22:02.881Z,99.90
2022-10-12T04:24:48.772Z,99.90
2022-10-12T04:27:29.685Z,99.90
2022-10-12T04:30:06.257Z,99.90
2022-10-12T04:32:39.308Z,99.90
2022-10-12T04:35:11.329Z,99.90
2022-10-12T04:37:41.294Z,99.90
2022-10-12T04:40:13.757Z,99.90
2022-10-12T04:42:48.139Z,99.90
2022-10-12T04:45:29.568Z,99.90
2022-10-12T04:48:04.334Z,99.90
2022-10-12T04:50:51.204Z,99.90
2022-10-12T04:53:42.117Z,99.90
2022-10-12T04:56:22.748Z,99.90
2022-10-12T04:59:10.003Z,99.90
2022-10-12T05:01:54.097Z,99.90
2022-10-12T05:04:29.887Z,99.90
2022-10-12T05:07:03.392Z,99.90
2022-10-12T05:09:40.239Z,99.90
2022-10-12T05:12:12.843Z,99.90
2022-10-12T05:14:45.947Z,99.90
2022-10-12T05:17:21.515Z,99.90
2022-10-12T05:19:56.939Z,99.90
2022-10-12T05:22:32.344Z,99.90
2022-10-12T05:25:15.771Z,99.90
2022-10-12T05:27:52.207Z,99.90
2022-10-12T05:30:35.812Z,99.90
2022-10-12T05:33:33.879Z,99.90
2022-10-12T05:36:09.727Z,99.90
2022-10-12T05:38:52.052Z,99.90
2022-10-12T05:41:35.841Z,99.90
2022-10-12T05:44:16.671Z,99.90
2022-10-12T05:46:46.844Z,99.90
2022-10-12T05:49:20.148Z,99.90
2022-10-12T05:51:52.982Z,99.90
2022-10-12T05:54:22.316Z,99.90
2022-10-12T05:56:58.135Z,99.90
2022-10-12T05:59:29.748Z,99.90
2022-10-12T06:01:59.058Z,99.90
2022-10-12T06:04:31.485Z,99.90
2022-10-12T06:07:03.071Z,99.90
2022-10-12T06:09:35.916Z,99.90
2022-10-12T06:12:08.798Z,99.90
2022-10-12T06:14:37.669Z,99.90
2022-10-12T06:17:07.856Z,99.90
2022-10-12T06:19:38.065Z,99.90
2022-10-12T06:22:09.209Z,99.90
2022-10-12T06:24:38.404Z,99.90
2022-10-12T06:27:06.805Z,99.90
2022-10-12T06:29:36.254Z,99.90
2022-10-12T06:32:04.395Z,99.90
2022-10-12T06:34:35.428Z,99.90
2022-10-12T06:37:20.409Z,99.90
2022-10-12T06:40:01.063Z,99.90
2022-10-12T06:42:30.603Z,99.90
2022-10-12T06:45:04.176Z,99.90
2022-10-12T06:47:33.402Z,99.90
2022-10-12T06:50:02.620Z,99.90
2022-10-12T06:52:36.167Z,99.90
2022-10-12T06:55:06.123Z,99.90
2022-10-12T06:57:34.977Z,99.90
2022-10-12T07:00:09.071Z,99.90
2022-10-12T07:02:40.025Z,99.90
2022-10-12T07:05:09.900Z,99.90
2022-10-12T07:07:39.986Z,99.90
2022-10-12T07:10:10.939Z,99.90
2022-10-12T07:12:40.122Z,99.90
2022-10-12T07:15:09.842Z,99.90
2022-10-12T07:17:38.614Z,99.90
2022-10-12T07:20:14.100Z,99.90
2022-10-12T07:22:44.744Z,99.90
2022-10-12T07:25:14.778Z,99.90
2022-10-12T07:27:45.005Z,99.90
2022-10-12T07:30:15.529Z,99.90
2022-10-12T07:32:45.339Z,99.90
2022-10-12T07:35:13.900Z,99.90
2022-10-12T07:37:44.201Z,99.90
2022-10-12T07:40:13.625Z,99.90
2022-10-12T07:43:15.241Z,99.90
2022-10-12T07:45:44.766Z,99.90
2022-10-12T07:48:15.966Z,99.90
2022-10-12T07:50:44.701Z,99.90
2022-10-12T07:53:25.777Z,99.90
2022-10-12T07:55:55.603Z,99.90
2022-10-12T08:01:08.770Z,99.90
2022-10-12T08:03:37.439Z,99.90
2022-10-12T08:06:11.179Z,99.90
2022-10-12T08:08:44.396Z,99.90
2022-10-12T08:11:13.368Z,99.90
2022-10-12T08:13:42.672Z,99.90
2022-10-12T08:16:14.679Z,99.90
2022-10-12T08:18:47.449Z,99.90
2022-10-12T08:21:21.477Z,99.90
2022-10-12T08:23:59.607Z,99.90
2022-10-12T08:26:29.709Z,99.90
2022-10-12T08:29:02.052Z,99.90
2022-10-12T08:31:31.511Z,99.90
2022-10-12T08:34:00.534Z,99.90
2022-10-12T08:36:29.481Z,99.90
2022-10-12T08:38:59.688Z,99.90
2022-10-12T08:41:55.163Z,99.90
2022-10-12T08:44:53.111Z,99.90
2022-10-12T08:47:31.548Z,99.90
2022-10-12T08:50:04.744Z,99.90
2022-10-12T08:52:34.600Z,99.90
2022-10-12T08:55:18.504Z,99.90
2022-10-12T09:00:23.913Z,99.90
2022-10-12T09:03:17.390Z,99.90
2022-10-12T09:05:55.397Z,99.90
2022-10-12T09:08:55.625Z,99.90
2022-10-12T09:11:43.962Z,99.90
2022-10-12T09:14:17.815Z,99.90
2022-10-12T09:16:50.416Z,99.90
2022-10-12T09:19:25.313Z,99.90
2022-10-12T09:22:00.139Z,99.90
2022-10-12T09:24:32.951Z,99.90
2022-10-12T09:27:13.871Z,99.90
2022-10-12T09:29:42.937Z,99.90
2022-10-12T09:32:45.498Z,95.60
2022-10-12T09:35:16.274Z,93.20
2022-10-12T09:37:55.166Z,80.80
2022-10-12T09:40:26.982Z,69.50
2022-10-12T09:42:59.417Z,75.00
2022-10-12T09:45:27.932Z,63.80
2022-10-12T09:48:19.957Z,50.40
2022-10-12T09:50:53.058Z,49.00
2022-10-12T09:53:25.199Z,46.70
2022-10-12T09:55:55.591Z,45.70
2022-10-12T09:58:56.342Z,42.50
2022-10-12T10:01:34.538Z,43.90
2022-10-12T10:04:12.376Z,41.90
2022-10-12T10:06:44.142Z,39.10
2022-10-12T10:09:33.703Z,38.30
2022-10-12T10:12:15.638Z,40.50
2022-10-12T10:14:47.754Z,53.50
2022-10-12T10:17:20.011Z,39.20
2022-10-12T10:19:54.855Z,34.20
2022-10-12T10:22:24.879Z,24.80
2022-10-12T10:24:59.075Z,21.40
2022-10-12T10:27:37.903Z,19.30
2022-10-12T10:30:32.605Z,27.00
2022-10-12T10:33:15.107Z,22.20
2022-10-12T10:36:02.727Z,20.00
2022-10-12T10:38:50.830Z,20.90
2022-10-12T10:41:22.677Z,18.20
2022-10-12T10:43:52.837Z,18.60
2022-10-12T10:46:27.168Z,13.90
2022-10-12T10:49:01.216Z,12.30
2022-10-12T10:51:44.942Z,14.20
2022-10-12T10:54:18.564Z,11.90
2022-10-12T10:56:48.457Z,13.50
2022-10-12T10:59:25.082Z,10.90
2022-10-12T11:01:57.959Z,10.50
2022-10-12T11:04:31.350Z,12.80
2022-10-12T11:07:09.590Z,11.20
2022-10-12T11:09:44.074Z,9.20
2022-10-12T11:12:18.525Z,8.70
2022-10-12T11:14:52.138Z,12.90
2022-10-12T11:17:30.593Z,12.80
2022-10-12T11:20:17.336Z,15.10
2022-10-12T11:22:51.650Z,13.10
2022-10-12T11:25:27.529Z,17.00
2022-10-12T11:27:59.155Z,19.10
2022-10-12T11:30:40.777Z,12.10
2022-10-12T11:33:26.110Z,13.20
2022-10-12T11:36:04.696Z,23.50
2022-10-12T11:38:46.013Z,18.10
2022-10-12T11:41:34.975Z,13.10
2022-10-12T11:44:07.936Z,14.70
2022-10-12T11:46:47.231Z,14.40
2022-10-12T11:49:29.659Z,24.20
2022-10-12T11:52:02.217Z,21.10
2022-10-12T11:54:37.043Z,17.70
2022-10-12T11:57:13.427Z,15.10
2022-10-12T11:59:46.640Z,15.00
2022-10-12T12:02:20.739Z,17.60
2022-10-12T12:04:53.554Z,16.50
2022-10-12T12:07:54.774Z,12.80
2022-10-12T12:11:03.072Z,14.90
2022-10-12T12:13:35.975Z,20.60
2022-10-12T12:16:35.444Z,10.70
2022-10-12T12:19:42.915Z,13.50
2022-10-12T12:22:26.525Z,14.90
2022-10-12T12:25:04.520Z,14.90
2022-10-12T12:27:49.637Z,14.80
2022-10-12T12:30:37.742Z,18.10
2022-10-12T12:33:25.730Z,12.50
2022-10-12T12:36:00.175Z,13.70
2022-10-12T12:38:38.305Z,10.00
2022-10-12T12:41:10.813Z,7.20
2022-10-12T12:44:07.159Z,9.20
2022-10-12T12:47:44.623Z,13.20
2022-10-12T12:50:05.809Z,7.10
2022-10-12T12:52:36.601Z,6.80
2022-10-12T12:55:38.181Z,10.10
2022-10-12T12:58:41.739Z,5.50
2022-10-12T13:01:33.934Z,5.30
2022-10-12T13:04:32.792Z,4.20
2022-10-12T13:07:44.586Z,2.90
2022-10-12T13:10:26.681Z,5.40
2022-10-12T13:13:23.332Z,4.90
2022-10-12T13:16:24.974Z,6.50
2022-10-12T13:19:06.686Z,3.90
2022-10-12T13:21:45.402Z,6.30
2022-10-12T13:24:39.243Z,11.40
2022-10-12T13:27:22.393Z,3.40
2022-10-12T13:29:59.450Z,12.50
2022-10-12T13:32:39.330Z,3.20
2022-10-12T13:35:15.275Z,1.60
2022-10-12T13:37:49.443Z,1.70
2022-10-12T13:40:40.719Z,2.80
2022-10-12T13:43:45.437Z,1.00
2022-10-12T13:46:43.412Z,1.00
2022-10-12T13:49:27.416Z,1.00
2022-10-12T13:52:01.957Z,1.00
2022-10-12T13:54:41.873Z,1.00
2022-10-12T13:57:22.237Z,1.40
2022-10-12T14:00:04.479Z,1.00
2022-10-12T14:02:40.494Z,1.00
2022-10-12T14:05:24.791Z,1.00
2022-10-12T14:08:10.974Z,1.00
2022-10-12T14:10:41.691Z,1.00
2022-10-12T14:13:17.522Z,1.00
2022-10-12T14:15:52.346Z,1.00
2022-10-12T14:18:41.325Z,1.00
2022-10-12T14:21:18.212Z,1.00
2022-10-12T14:23:52.590Z,1.00
2022-10-12T14:26:41.833Z,1.00
2022-10-12T14:29:32.113Z,1.00
2022-10-12T14:32:09.861Z,1.00
2022-10-12T14:34:47.999Z,1.00
2022-10-12T14:37:38.217Z,1.00
2022-10-12T14:40:33.790Z,1.00
2022-10-12T14:43:08.040Z,1.00
2022-10-12T14:45:37.532Z,1.00
2022-10-12T14:48:17.472Z,1.00
2022-10-12T14:50:51.678Z,1.00
2022-10-12T14:55:53.779Z,1.80
2022-10-12T14:58:25.890Z,6.00
2022-10-12T15:01:06.829Z,6.90
2022-10-12T15:06:16.008Z,4.30
2022-10-12T15:08:45.966Z,1.00
2022-10-12T15:11:16.322Z,1.00
2022-10-12T15:13:45.009Z,1.00
2022-10-12T15:16:23.588Z,1.00
2022-10-12T15:18:58.678Z,1.00
2022-10-12T15:21:35.164Z,1.00
2022-10-12T15:24:04.139Z,1.00
2022-10-12T15:26:32.600Z,1.00
2022-10-12T15:29:02.752Z,1.00
2022-10-12T15:31:31.267Z,1.00
2022-10-12T15:34:17.144Z,1.00
2022-10-12T15:36:55.572Z,10.10
2022-10-12T15:41:59.713Z,1.00
2022-10-12T15:44:30.328Z,4.00
2022-10-12T15:47:14.538Z,5.70
2022-10-12T15:49:57.174Z,25.70
2022-10-12T15:52:29.454Z,16.00
2022-10-12T15:57:35.380Z,23.50
2022-10-12T16:00:08.348Z,51.50
2022-10-12T16:02:38.003Z,41.10
2022-10-12T16:05:12.849Z,64.80
2022-10-12T16:07:48.103Z,51.90
2022-10-12T16:10:18.513Z,55.00
2022-10-12T16:12:51.599Z,61.80
2022-10-12T16:15:21.453Z,62.30
2022-10-12T16:17:50.201Z,77.50
2022-10-12T16:20:19.935Z,76.20
2022-10-12T16:22:50.471Z,82.00
2022-10-12T16:25:22.234Z,91.20
2022-10-12T16:27:51.366Z,95.70
2022-10-12T16:30:20.201Z,99.00
2022-10-12T16:32:49.392Z,99.90
2022-10-12T16:35:17.924Z,99.90
2022-10-12T16:37:52.476Z,99.90
2022-10-12T16:40:21.564Z,99.90
2022-10-12T16:42:53.779Z,99.90
2022-10-12T16:45:22.709Z,99.90
2022-10-12T16:47:51.328Z,99.90
2022-10-12T16:50:20.382Z,99.90
2022-10-12T16:52:50.339Z,99.90
2022-10-12T16:55:25.166Z,99.90
2022-10-12T16:57:53.423Z,99.90
2022-10-12T17:00:22.020Z,99.90
2022-10-12T17:02:54.060Z,99.90
2022-10-12T17:05:25.631Z,99.90
2022-10-12T17:07:59.823Z,99.90
2022-10-12T17:12:57.227Z,99.90
2022-10-12T17:15:31.242Z,99.90
2022-10-12T17:18:02.150Z,99.90
2022-10-12T17:20:35.352Z,99.90
2022-10-12T17:23:07.082Z,99.90
2022-10-12T17:25:39.403Z,99.90
2022-10-12T17:28:09.705Z,99.90
2022-10-12T17:30:40.106Z,99.90
2022-10-12T17:33:14.037Z,99.90
2022-10-12T17:35:50.594Z,99.90
2022-10-12T17:38:21.011Z,99.90
2022-10-12T17:40:51.364Z,99.90
2022-10-12T17:43:20.220Z,99.90
2022-10-12T17:50:47.909Z,99.90
2022-10-12T17:53:16.606Z,99.90
2022-10-12T17:55:49.186Z,99.90
2022-10-12T17:58:17.837Z,99.90
2022-10-12T18:00:47.622Z,99.90
2022-10-12T18:05:53.994Z,99.90
2022-10-12T18:10:55.024Z,99.90
2022-10-12T18:18:30.092Z,99.90
2022-10-12T18:20:58.487Z,99.90
2022-10-12T18:23:27.926Z,99.90
2022-10-12T18:25:59.544Z,99.90
2022-10-12T18:33:39.522Z,99.90
2022-10-12T18:36:35.843Z,99.90
2022-10-12T18:39:09.877Z,99.90
2022-10-12T18:42:04.003Z,99.90
2022-10-12T18:44:56.435Z,99.90
2022-10-12T18:47:36.235Z,99.90
2022-10-12T18:50:32.695Z,99.90
2022-10-12T18:53:09.670Z,99.90
2022-10-12T18:55:50.934Z,99.90
2022-10-12T18:58:22.690Z,99.90
2022-10-12T19:00:52.595Z,99.90
2022-10-12T19:06:05.032Z,99.90
2022-10-12T19:11:05.018Z,99.90
2022-10-12T19:13:36.289Z,99.90
2022-10-12T19:16:07.295Z,99.90
2022-10-12T19:18:40.222Z,99.90
2022-10-12T19:21:13.345Z,99.90
2022-10-12T19:23:44.807Z,99.90
2022-10-12T19:26:16.162Z,99.90
2022-10-12T19:29:04.679Z,99.90
2022-10-12T19:31:42.303Z,99.90
2022-10-12T19:34:13.626Z,99.90
2022-10-12T19:36:42.763Z,99.90
2022-10-12T19:39:14.550Z,99.90
2022-10-12T19:41:43.173Z,99.90
2022-10-12T19:44:19.397Z,99.90
2022-10-12T19:46:54.911Z,99.90
2022-10-12T19:49:24.698Z,99.90
2022-10-12T19:54:25.582Z,99.90
2022-10-12T19:56:53.786Z,99.90
2022-10-12T19:59:36.022Z,99.90
2022-10-12T20:02:17.180Z,99.90
2022-10-12T20:04:45.844Z,99.90
2022-10-12T20:07:14.937Z,99.90
2022-10-12T20:09:46.333Z,99.90
2022-10-12T20:12:15.051Z,99.90
2022-10-12T20:14:54.083Z,99.90
2022-10-12T20:17:23.220Z,99.90
2022-10-12T20:19:57.739Z,99.90
2022-10-12T20:27:24.342Z,99.90
2022-10-12T20:29:57.001Z,99.90
2022-10-12T20:32:26.948Z,99.90
2022-10-12T20:35:00.996Z,99.90
2022-10-12T20:37:29.279Z,99.90
2022-10-12T20:39:59.038Z,99.90
2022-10-12T20:42:28.018Z,99.90
2022-10-12T20:44:59.338Z,99.90
2022-10-12T20:47:28.830Z,99.90
2022-10-12T20:49:59.668Z,99.90
2022-10-12T20:52:30.144Z,99.90
2022-10-12T20:55:00.435Z,99.90
2022-10-12T20:57:30.571Z,99.90
2022-10-12T21:00:03.275Z,99.90
2022-10-12T21:02:41.967Z,99.90
2022-10-12T21:05:11.866Z,99.90
2022-10-12T21:07:40.612Z,99.90
2022-10-12T21:10:10.754Z,99.90
2022-10-12T21:12:47.036Z,99.90
2022-10-12T21:15:19.607Z,99.90
2022-10-12T21:17:53.869Z,99.90
2022-10-12T21:20:22.516Z,99.90
2022-10-12T21:22:51.653Z,99.90
2022-10-12T21:25:19.904Z,99.90
2022-10-12T21:27:48.716Z,99.90
2022-10-12T21:30:20.346Z,99.90
2022-10-12T21:32:53.428Z,99.90
2022-10-12T21:35:22.168Z,99.90
2022-10-12T21:37:53.155Z,99.90
2022-10-12T21:40:23.522Z,99.90
2022-10-12T21:45:22.284Z,99.90
2022-10-12T21:47:50.716Z,99.90
2022-10-12T21:50:24.294Z,99.90
2022-10-12T21:55:28.803Z,99.90
2022-10-12T21:57:59.904Z,99.90
2022-10-12T22:00:33.210Z,99.90
2022-10-12T22:03:04.711Z,99.90
2022-10-12T22:05:40.784Z,99.90
2022-10-12T22:08:12.175Z,99.90
2022-10-12T22:10:41.372Z,99.90
2022-10-12T22:13:10.584Z,99.90
2022-10-12T22:15:41.188Z,99.90
2022-10-12T22:18:12.376Z,99.90
2022-10-12T22:20:42.084Z,99.90
2022-10-12T22:23:12.752Z,99.90
2022-10-12T22:25:43.214Z,99.90
2022-10-12T22:28:14.604Z,99.90
2022-10-12T22:30:51.971Z,99.90
2022-10-12T22:33:20.295Z,99.90
2022-10-12T22:35:54.598Z,99.90
2022-10-12T22:38:24.727Z,99.90
2022-10-12T22:41:02.215Z,99.90
2022-10-12T22:43:32.567Z,99.90
2022-10-12T22:46:04.041Z,99.90
2022-10-12T22:48:36.222Z,99.90
2022-10-12T22:51:08.143Z,99.90
2022-10-12T22:53:37.896Z,99.90
2022-10-12T22:56:14.225Z,99.90
2022-10-12T22:58:49.153Z,99.90
2022-10-12T23:01:19.520Z,99.90
2022-10-12T23:03:48.666Z,99.90
2022-10-12T23:06:18.785Z,99.90
2022-10-12T23:08:48.701Z,99.90
2022-10-12T23:11:23.158Z,99.90
2022-10-12T23:13:56.238Z,99.90
2022-10-12T23:16:27.667Z,99.90
2022-10-12T23:19:00.459Z,99.90
2022-10-12T23:21:31.318Z,99.90
2022-10-12T23:24:01.112Z,99.90
2022-10-12T23:26:30.806Z,99.90
2022-10-12T23:29:04.274Z,99.90
2022-10-12T23:31:35.945Z,99.90
2022-10-12T23:34:09.583Z,99.90
2022-10-12T23:36:47.057Z,99.90
2022-10-12T23:39:16.023Z,99.90
2022-10-12T23:41:47.083Z,99.90
2022-10-12T23:44:17.857Z,99.90
2022-10-12T23:46:48.322Z,99.90
2022-10-12T23:49:23.183Z,99.90
2022-10-12T23:51:52.905Z,99.90
2022-10-12T23:54:26.967Z,99.90
2022-10-12T23:59:29.139Z,99.90
